LFRTLFRM

Guest
Details From LFRT - Saint Brieuc Armor
To LFRM - Le Mans Arnage
Flight Number -
Tags generated
Created
Modified
Stats Distance 127 nm / 236 km
Max Altitude 15,700 ft / 4,785 m
Waypoints 3
Social Downloads 0
Likes 0
Share VATSIM

Download

Looking for another format? Having issues loading an existing format? Contact us
Advertisement - Login to hide

Notes

Basic altitude profile: - Ascent Rate: 1500ft/min - Ascent Speed: 145kts - Cruise Altitude: 120ft - Cruise Speed: 150kts - Descent Rate: 1500ft/min - Descent Speed: 150kts Options: - Use NATs: yes - Use PACOTS: yes - Use low airways: yes - Use high airways: yes

Route

LFRT BETOG LFRM

ID Type Via Altitude (ft/m) Position (lat/lon) Dist (leg/tot) Name
O LFRT APT - 0 / 0 48.53826 / -2.85461 - / 0 nm Saint Brieuc Armor
BETOG FIX - 15,700 / 4,785 48.33639 / -1.71750 46 / 46 nm
O LFRM APT - 0 / 0 47.94784 / 0.20129 80 / 127 nm Le Mans Arnage

Altitude Profile

Advertisement - Login to hide

LFRT

Details ICAO LFRT (SBK)
Name Saint Brieuc Armor
Region France
Timezone Europe/Paris (UTC+1.0)
Stats Elevation 452 ft / 138 m (AMSL)
Location 48.538300° -2.854610°
Runways 1
Magnetic Variation 0.874° W

METAR

LFRT 211130Z AUTO 07003KT 030V110 9999 OVC022 11/09 Q1034

Decode

TAF

Not found

Departure Runways

ID Width Length Bearing (true/mag) Surface Threshold Overrun Markings Lighting
06 148 ft / 45 m 7,214 ft / 2,199 m 58.77° / 59.64° ASPHALT 0 ft / 0 m 0 ft / 0 m PREC-APP EDGE THRESHOLD
24 148 ft / 45 m 7,214 ft / 2,199 m 238.79° / 239.66° ASPHALT 0 ft / 0 m 0 ft / 0 m PREC-APP EDGE THRESHOLD ALSF-I REIL-OMNI

LFRM

Details ICAO LFRM (LME)
Name Le Mans Arnage
Region France
Timezone Europe/Paris (UTC+1.0)
Stats Elevation 193 ft / 59 m (AMSL)
Location 47.947800° 0.201290°
Runways 1
Magnetic Variation 0.162° E

METAR

LFRM 211130Z AUTO 07008KT 030V100 9999 BKN038 15/06 Q1033 NOSIG

Decode

TAF

TAF LFRM 210500Z 2106/2206 VRB02KT 9999 BKN040 BECMG 2109/2111 04006KT TEMPO 2200/2206 3000 BR TEMPO 2202/2206 0500 FG VV///

Decode

Destination Runways

ID Width Length Bearing (true/mag) Surface Threshold Overrun Markings Lighting
02 98 ft / 30 m 4,657 ft / 1,420 m 20.27° / 20.11° ASPHALT 0 ft / 0 m 0 ft / 0 m APP EDGE THRESHOLD REIL-OMNI
20 98 ft / 30 m 4,657 ft / 1,420 m 200.28° / 200.12° ASPHALT 902 ft / 275 m 0 ft / 0 m APP EDGE THRESHOLD

Approach Navaids

Runway Type Ident Frequency Range Bearing (true/mag) Slope Elevation
02 LOC-LOC LEM 109.75 MHz 18 nm / 33 km 20.27° / 20.11 ° - 194 ft / 59 m (AMSL)
02 DME LEM 109.75 MHz 18 nm / 33 km - - 180 ft / 55 m (AMSL)

Popular Alternatives